createdAt,value
2023-02-07T00:01:46.133Z,13.73
2023-02-07T00:04:16.741Z,19.13
2023-02-07T00:06:44.937Z,16.00
2023-02-07T00:09:13.605Z,19.77
2023-02-07T00:11:44.045Z,17.50
2023-02-07T00:14:13.924Z,21.57
2023-02-07T00:16:45.805Z,18.23
2023-02-07T00:19:16.564Z,14.87
2023-02-07T00:21:47.746Z,17.53
2023-02-07T00:24:15.942Z,18.73
2023-02-07T00:26:46.856Z,16.77
2023-02-07T00:29:18.118Z,16.77
2023-02-07T00:31:48.491Z,13.87
2023-02-07T00:34:17.230Z,17.67
2023-02-07T00:36:45.430Z,14.00
2023-02-07T00:39:17.592Z,18.53
2023-02-07T00:41:49.154Z,11.77
2023-02-07T00:44:17.338Z,12.43
2023-02-07T00:46:47.469Z,15.33
2023-02-07T00:49:15.832Z,13.27
2023-02-07T00:51:46.362Z,11.87
2023-02-07T00:54:14.922Z,18.33
2023-02-07T00:56:45.549Z,26.53
2023-02-07T00:59:13.697Z,22.50
2023-02-07T01:01:44.166Z,20.33
2023-02-07T01:04:13.666Z,22.57
2023-02-07T01:06:44.947Z,22.90
2023-02-07T01:09:15.569Z,24.03
2023-02-07T01:11:43.674Z,22.83
2023-02-07T01:14:13.824Z,22.17
2023-02-07T01:16:43.162Z,22.63
2023-02-07T01:19:14.977Z,19.37
2023-02-07T01:21:43.158Z,21.33
2023-02-07T01:24:11.468Z,14.67
2023-02-07T01:26:42.140Z,15.57
2023-02-07T01:29:14.983Z,14.50
2023-02-07T01:31:45.170Z,13.70
2023-02-07T01:34:14.837Z,12.93
2023-02-07T01:36:42.956Z,12.33
2023-02-07T01:39:13.956Z,10.87
2023-02-07T01:41:42.050Z,10.10
2023-02-07T01:44:46.087Z,10.43
2023-02-07T01:47:18.850Z,13.87
2023-02-07T01:49:52.276Z,13.07
2023-02-07T01:52:25.797Z,18.23
2023-02-07T01:55:00.005Z,16.23
2023-02-07T01:57:30.305Z,17.33
2023-02-07T01:59:59.645Z,17.43
2023-02-07T02:02:31.723Z,22.60
2023-02-07T02:05:01.349Z,16.70
2023-02-07T02:07:32.987Z,19.10
2023-02-07T02:10:03.397Z,17.87
2023-02-07T02:12:45.897Z,18.20
2023-02-07T02:15:30.713Z,12.70
2023-02-07T02:18:32.479Z,13.47
2023-02-07T02:21:47.010Z,13.10
2023-02-07T02:24:43.680Z,10.30
2023-02-07T02:27:23.665Z,11.83
2023-02-07T02:30:14.710Z,10.77
2023-02-07T02:33:12.496Z,12.90
2023-02-07T02:35:46.069Z,9.43
2023-02-07T02:38:19.873Z,11.70
2023-02-07T02:40:55.218Z,12.23
2023-02-07T02:43:32.854Z,11.67
2023-02-07T02:46:07.436Z,10.77
2023-02-07T02:48:38.156Z,12.60
2023-02-07T02:51:08.612Z,11.60
2023-02-07T02:53:37.803Z,11.83
2023-02-07T02:56:46.019Z,9.27
2023-02-07T02:59:52.121Z,10.37
2023-02-07T03:02:33.773Z,11.90
2023-02-07T03:05:21.343Z,9.23
2023-02-07T03:07:59.544Z,9.37
2023-02-07T03:10:39.679Z,11.50
2023-02-07T03:13:16.056Z,9.93
2023-02-07T03:15:56.856Z,9.90
2023-02-07T03:18:30.330Z,10.13
2023-02-07T03:21:04.379Z,10.00
2023-02-07T03:23:33.598Z,11.13
2023-02-07T03:26:03.614Z,11.17
2023-02-07T03:28:35.003Z,11.10
2023-02-07T03:31:06.084Z,12.30
2023-02-07T03:33:37.362Z,10.70
2023-02-07T03:36:16.481Z,11.17
2023-02-07T03:38:47.521Z,11.77
2023-02-07T03:41:22.618Z,9.90
2023-02-07T03:43:55.194Z,10.87
2023-02-07T03:46:24.607Z,10.67
2023-02-07T03:48:56.107Z,9.17
2023-02-07T03:51:25.570Z,9.47
2023-02-07T03:53:53.648Z,11.50
2023-02-07T03:56:24.080Z,9.67
2023-02-07T03:58:52.176Z,10.17
2023-02-07T04:01:20.643Z,10.40
2023-02-07T04:03:48.773Z,7.77
2023-02-07T04:06:19.334Z,9.77
2023-02-07T04:08:48.840Z,9.03
2023-02-07T04:11:17.017Z,11.20
2023-02-07T04:13:45.090Z,9.97
2023-02-07T04:16:13.226Z,10.17
2023-02-07T04:18:44.468Z,8.83
2023-02-07T04:21:12.584Z,7.43
2023-02-07T04:23:40.645Z,10.57
2023-02-07T04:26:10.122Z,8.23
2023-02-07T04:28:40.610Z,7.90
2023-02-07T04:31:11.268Z,6.30
2023-02-07T04:33:41.430Z,6.53
2023-02-07T04:36:09.788Z,7.03
2023-02-07T04:38:40.178Z,6.63
2023-02-07T04:41:12.226Z,6.50
2023-02-07T04:43:40.369Z,6.00
2023-02-07T04:46:09.074Z,6.27
2023-02-07T04:48:38.092Z,6.87
2023-02-07T04:51:06.965Z,7.07
2023-02-07T04:53:35.556Z,8.73
2023-02-07T04:56:06.809Z,7.20
2023-02-07T04:58:36.257Z,8.50
2023-02-07T05:01:04.628Z,6.97
2023-02-07T05:03:35.788Z,7.07
2023-02-07T05:06:03.918Z,7.60
2023-02-07T05:08:32.147Z,7.83
2023-02-07T05:11:02.848Z,6.50
2023-02-07T05:13:33.039Z,7.77
2023-02-07T05:16:05.636Z,10.33
2023-02-07T05:18:36.473Z,7.83
2023-02-07T05:21:04.786Z,9.53
2023-02-07T05:23:32.919Z,8.13
2023-02-07T05:26:01.286Z,8.57
2023-02-07T05:28:29.661Z,11.23
2023-02-07T05:30:57.903Z,8.97
2023-02-07T05:33:26.609Z,9.57
2023-02-07T05:35:54.693Z,9.53
2023-02-07T05:38:23.009Z,9.70
2023-02-07T05:40:51.176Z,12.13
2023-02-07T05:43:22.014Z,9.07
2023-02-07T05:45:52.470Z,8.63
2023-02-07T05:48:20.645Z,7.70
2023-02-07T05:50:50.203Z,8.07
2023-02-07T05:53:18.397Z,8.23
2023-02-07T05:55:51.618Z,8.30
2023-02-07T05:58:22.245Z,7.63
2023-02-07T06:00:50.546Z,7.97
2023-02-07T06:03:21.017Z,12.33
2023-02-07T06:05:52.985Z,10.73
2023-02-07T06:08:28.548Z,10.97
2023-02-07T06:10:56.691Z,10.40
2023-02-07T06:13:27.182Z,8.50
2023-02-07T06:15:55.438Z,10.93
2023-02-07T06:18:25.917Z,10.23
2023-02-07T06:20:55.421Z,10.82
2023-02-07T06:23:23.577Z,11.93
2023-02-07T06:25:54.279Z,10.10
2023-02-07T06:28:22.537Z,10.03
2023-02-07T06:30:52.345Z,12.47
2023-02-07T06:33:22.950Z,13.10
2023-02-07T06:35:55.605Z,11.93
2023-02-07T06:38:27.436Z,13.17
2023-02-07T06:40:55.697Z,12.27
2023-02-07T06:43:25.877Z,13.60
2023-02-07T06:45:54.018Z,13.00
2023-02-07T06:48:24.400Z,11.87
2023-02-07T06:50:52.560Z,13.23
2023-02-07T06:53:20.686Z,11.23
2023-02-07T06:55:52.737Z,10.47
2023-02-07T06:58:20.821Z,12.67
2023-02-07T07:00:51.447Z,9.73
2023-02-07T07:03:26.935Z,10.20
2023-02-07T07:05:55.076Z,9.33
2023-02-07T07:08:23.343Z,12.53
2023-02-07T07:10:52.935Z,15.97
2023-02-07T07:13:21.372Z,11.33
2023-02-07T07:15:52.525Z,14.07
2023-02-07T07:18:20.645Z,11.43
2023-02-07T07:20:53.387Z,12.40
2023-02-07T07:23:21.617Z,11.93
2023-02-07T07:25:49.786Z,11.13
2023-02-07T07:28:19.219Z,9.43
2023-02-07T07:30:49.214Z,10.93
2023-02-07T07:33:17.704Z,11.77
2023-02-07T07:35:47.916Z,11.97
2023-02-07T07:38:18.581Z,9.63
2023-02-07T07:40:46.717Z,11.87
2023-02-07T07:43:14.878Z,10.50
2023-02-07T07:45:54.233Z,9.13
2023-02-07T07:48:22.599Z,11.63
2023-02-07T07:50:51.473Z,12.40
2023-02-07T07:53:20.342Z,11.37
2023-02-07T07:55:51.238Z,11.27
2023-02-07T07:58:22.668Z,11.40
2023-02-07T08:00:52.258Z,12.43
2023-02-07T08:03:24.371Z,11.17
2023-02-07T08:05:52.585Z,11.57
2023-02-07T08:08:22.785Z,11.03
2023-02-07T08:10:51.161Z,12.97
2023-02-07T08:13:21.616Z,12.33
2023-02-07T08:15:49.727Z,12.13
2023-02-07T08:18:19.217Z,13.87
2023-02-07T08:20:47.383Z,13.03
2023-02-07T08:23:15.671Z,11.00
2023-02-07T08:25:44.165Z,13.60
2023-02-07T08:28:15.037Z,13.77
2023-02-07T08:30:43.437Z,10.70
2023-02-07T08:33:11.549Z,10.00
2023-02-07T08:35:41.805Z,10.87
2023-02-07T08:38:12.711Z,11.00
2023-02-07T08:40:43.904Z,10.87
2023-02-07T08:43:13.243Z,12.43
2023-02-07T08:45:47.764Z,9.13
2023-02-07T08:48:16.431Z,10.60
2023-02-07T08:50:48.592Z,10.50
2023-02-07T08:53:19.550Z,10.77
2023-02-07T08:55:48.196Z,12.87
2023-02-07T08:58:16.562Z,8.90
2023-02-07T09:00:44.746Z,10.03
2023-02-07T09:03:14.292Z,10.10
2023-02-07T09:05:45.022Z,10.97
2023-02-07T09:08:14.524Z,11.57
2023-02-07T09:10:47.527Z,10.23
2023-02-07T09:13:15.778Z,9.33
2023-02-07T09:15:43.887Z,9.10
2023-02-07T09:18:12.086Z,14.50
2023-02-07T09:20:41.056Z,12.27
2023-02-07T09:23:21.320Z,10.20
2023-02-07T09:25:54.395Z,11.70
2023-02-07T09:28:23.380Z,10.87
2023-02-07T09:30:52.116Z,9.30
2023-02-07T09:33:20.552Z,8.87
2023-02-07T09:35:51.683Z,10.90
2023-02-07T09:38:25.670Z,10.67
2023-02-07T09:40:58.185Z,10.20
2023-02-07T09:43:39.590Z,10.63
2023-02-07T09:46:13.996Z,10.20
2023-02-07T09:48:49.039Z,12.83
2023-02-07T09:51:20.854Z,9.57
2023-02-07T09:53:54.675Z,10.23
2023-02-07T09:56:27.471Z,12.37
2023-02-07T09:59:01.754Z,10.40
2023-02-07T10:01:35.406Z,12.70
2023-02-07T10:04:23.478Z,9.57
2023-02-07T10:06:54.858Z,10.73
2023-02-07T10:09:28.528Z,10.40
2023-02-07T10:12:06.353Z,11.23
2023-02-07T10:14:52.767Z,10.60
2023-02-07T10:17:33.645Z,11.10
2023-02-07T10:20:27.469Z,10.10
2023-02-07T10:23:06.237Z,10.53
2023-02-07T10:25:41.676Z,10.93
2023-02-07T10:28:37.828Z,8.90
2023-02-07T10:31:16.393Z,10.07
2023-02-07T10:33:50.296Z,13.30
2023-02-07T10:36:19.371Z,9.63
2023-02-07T10:39:08.101Z,13.20
2023-02-07T10:41:44.119Z,8.90
2023-02-07T10:44:19.960Z,10.20
2023-02-07T10:46:55.043Z,10.10
2023-02-07T10:49:26.414Z,8.97
2023-02-07T10:51:59.275Z,8.30
2023-02-07T10:54:27.501Z,10.23
2023-02-07T10:57:02.230Z,8.77
2023-02-07T10:59:40.475Z,9.67
2023-02-07T11:02:52.929Z,10.47
2023-02-07T11:05:42.518Z,11.87
2023-02-07T11:08:24.614Z,9.00
2023-02-07T11:10:54.332Z,7.30
2023-02-07T11:13:24.650Z,8.63
2023-02-07T11:15:58.148Z,9.57
2023-02-07T11:18:45.046Z,8.13
2023-02-07T11:21:26.702Z,8.23
2023-02-07T11:24:01.278Z,7.53
2023-02-07T11:26:33.009Z,8.47
2023-02-07T11:29:09.152Z,7.63
2023-02-07T11:31:39.761Z,9.17
2023-02-07T11:34:23.285Z,8.53
2023-02-07T11:36:52.268Z,8.83
2023-02-07T11:39:22.955Z,8.93
2023-02-07T11:42:01.117Z,8.90
2023-02-07T11:44:30.907Z,6.60
2023-02-07T11:47:06.094Z,9.00
2023-02-07T11:49:42.518Z,6.27
2023-02-07T11:52:11.255Z,6.60
2023-02-07T11:54:41.435Z,8.13
2023-02-07T11:57:15.315Z,8.20
2023-02-07T11:59:48.546Z,5.90
2023-02-07T12:02:21.996Z,8.43
2023-02-07T12:04:50.907Z,6.60
2023-02-07T12:07:25.884Z,5.97
2023-02-07T12:09:59.777Z,6.00
2023-02-07T12:12:38.098Z,6.70
2023-02-07T12:15:13.900Z,8.67
2023-02-07T12:17:57.199Z,6.27
2023-02-07T12:20:27.903Z,6.00
2023-02-07T12:23:19.059Z,7.47
2023-02-07T12:25:53.175Z,6.40
2023-02-07T12:28:28.557Z,6.57
2023-02-07T12:31:06.463Z,6.13
2023-02-07T12:33:47.245Z,6.13
2023-02-07T12:36:21.221Z,5.50
2023-02-07T12:38:56.575Z,6.87
2023-02-07T12:41:30.821Z,6.73
2023-02-07T12:44:10.827Z,6.93
2023-02-07T12:46:48.083Z,7.80
2023-02-07T12:49:50.044Z,6.83
2023-02-07T12:52:34.267Z,6.95
2023-02-07T12:55:16.112Z,5.70
2023-02-07T12:57:53.282Z,5.30
2023-02-07T13:00:29.492Z,4.83
2023-02-07T13:03:19.109Z,5.47
2023-02-07T13:06:02.509Z,5.73
2023-02-07T13:08:41.064Z,5.03
2023-02-07T13:11:19.626Z,5.67
2023-02-07T13:13:57.554Z,5.90
2023-02-07T13:16:32.373Z,5.40
2023-02-07T13:19:12.498Z,5.83
2023-02-07T13:21:48.816Z,7.13
2023-02-07T13:24:21.785Z,6.27
2023-02-07T13:26:55.510Z,5.57
2023-02-07T13:29:24.746Z,5.63
2023-02-07T13:31:57.758Z,5.70
2023-02-07T13:34:29.903Z,5.93
2023-02-07T13:37:11.250Z,6.53
2023-02-07T13:39:55.900Z,6.67
2023-02-07T13:42:32.189Z,6.63
2023-02-07T13:45:10.056Z,6.37
2023-02-07T13:47:51.345Z,6.17
2023-02-07T13:50:38.961Z,8.07
2023-02-07T13:53:22.032Z,6.00
2023-02-07T13:55:50.637Z,5.70
2023-02-07T13:59:09.889Z,4.63
2023-02-07T14:01:38.296Z,5.17
2023-02-07T14:04:12.166Z,7.07
2023-02-07T14:06:41.702Z,7.90
2023-02-07T14:09:18.509Z,7.10
2023-02-07T14:11:50.354Z,7.23
2023-02-07T14:14:26.865Z,6.17
2023-02-07T14:16:59.010Z,6.60
2023-02-07T14:19:54.082Z,6.93
2023-02-07T14:22:27.803Z,7.10
2023-02-07T14:25:45.000Z,6.77
2023-02-07T14:28:23.025Z,5.17
2023-02-07T14:31:08.858Z,4.60
2023-02-07T14:33:39.008Z,4.87
2023-02-07T14:36:25.217Z,7.03
2023-02-07T14:39:29.922Z,5.07
2023-02-07T14:42:18.257Z,5.93
2023-02-07T14:44:49.830Z,5.50
2023-02-07T14:47:24.558Z,6.33
2023-02-07T14:49:55.234Z,6.20
2023-02-07T14:52:29.952Z,5.43
2023-02-07T14:55:02.190Z,5.67
2023-02-07T14:57:38.476Z,5.93
2023-02-07T15:00:22.944Z,5.77
2023-02-07T15:02:56.165Z,5.33
2023-02-07T15:05:29.501Z,5.90
2023-02-07T15:08:16.416Z,7.33
2023-02-07T15:10:52.629Z,4.27
2023-02-07T15:13:26.020Z,5.47
2023-02-07T15:15:57.132Z,5.67
2023-02-07T15:18:31.711Z,4.90
2023-02-07T15:21:03.179Z,5.07
2023-02-07T15:23:33.979Z,5.13
2023-02-07T15:26:07.591Z,6.10
2023-02-07T15:28:39.637Z,6.40
2023-02-07T15:31:15.418Z,5.43
2023-02-07T15:33:53.270Z,6.03
2023-02-07T15:36:33.718Z,5.30
2023-02-07T15:39:06.626Z,8.07
2023-02-07T15:41:37.263Z,6.50
2023-02-07T15:44:08.919Z,4.67
2023-02-07T15:46:48.220Z,5.13
2023-02-07T15:49:31.974Z,5.00
2023-02-07T15:52:06.611Z,4.90
2023-02-07T15:54:39.342Z,6.53
2023-02-07T15:57:13.635Z,5.10
2023-02-07T15:59:45.954Z,6.60
2023-02-07T16:02:25.001Z,5.70
2023-02-07T16:04:56.166Z,6.43
2023-02-07T16:07:25.226Z,6.30
2023-02-07T16:09:53.987Z,5.20
2023-02-07T16:12:45.012Z,5.87
2023-02-07T16:15:32.101Z,5.27
2023-02-07T16:18:04.098Z,6.27
2023-02-07T16:20:37.126Z,6.77
2023-02-07T16:23:09.734Z,5.57
2023-02-07T16:25:38.190Z,5.67
2023-02-07T16:28:11.587Z,5.93
2023-02-07T16:30:41.940Z,6.23
2023-02-07T16:33:14.269Z,6.33
2023-02-07T16:35:42.512Z,6.00
2023-02-07T16:38:10.674Z,7.37
2023-02-07T16:40:41.769Z,5.97
2023-02-07T16:43:10.175Z,5.50
2023-02-07T16:45:42.083Z,6.63
2023-02-07T16:48:15.882Z,7.97
2023-02-07T16:50:44.280Z,5.97
2023-02-07T16:53:12.502Z,7.60
2023-02-07T16:55:43.286Z,6.93
2023-02-07T16:58:22.063Z,6.70
2023-02-07T17:00:54.700Z,6.37
2023-02-07T17:03:24.205Z,6.63
2023-02-07T17:05:52.565Z,6.97
2023-02-07T17:08:23.292Z,7.47
2023-02-07T17:10:58.242Z,7.43
2023-02-07T17:13:29.462Z,7.83
2023-02-07T17:16:01.367Z,6.10
2023-02-07T17:18:30.917Z,8.10
2023-02-07T17:21:01.548Z,6.40
2023-02-07T17:23:32.682Z,8.00
2023-02-07T17:26:00.864Z,8.77
2023-02-07T17:28:29.084Z,9.90
2023-02-07T17:30:57.721Z,8.23
2023-02-07T17:33:27.340Z,8.70
2023-02-07T17:35:58.542Z,8.67
2023-02-07T17:38:26.736Z,9.63
2023-02-07T17:40:54.887Z,9.80
2023-02-07T17:43:23.045Z,7.83
2023-02-07T17:45:51.192Z,9.73
2023-02-07T17:48:19.420Z,11.23
2023-02-07T17:50:48.910Z,9.98
2023-02-07T17:53:21.390Z,9.87
2023-02-07T17:55:52.657Z,9.43
2023-02-07T17:58:23.213Z,8.33
2023-02-07T18:00:51.416Z,6.70
2023-02-07T18:03:21.847Z,9.43
2023-02-07T18:05:51.417Z,9.80
2023-02-07T18:08:19.569Z,8.97
2023-02-07T18:10:50.223Z,10.57
2023-02-07T18:13:18.408Z,9.60
2023-02-07T18:15:46.580Z,11.50
2023-02-07T18:18:16.571Z,9.67
2023-02-07T18:20:45.089Z,9.03
2023-02-07T18:23:15.493Z,9.37
2023-02-07T18:25:49.114Z,8.17
2023-02-07T18:28:17.883Z,9.03
2023-02-07T18:30:46.693Z,9.93
2023-02-07T18:33:19.352Z,8.50
2023-02-07T18:35:51.363Z,8.27
2023-02-07T18:38:21.091Z,11.17
2023-02-07T18:40:49.241Z,10.60
2023-02-07T18:43:17.400Z,9.60
2023-02-07T18:45:45.580Z,9.00
2023-02-07T18:48:14.439Z,9.07
2023-02-07T18:50:45.520Z,10.43
2023-02-07T18:53:14.244Z,10.07
2023-02-07T18:55:43.840Z,10.90
2023-02-07T18:58:12.108Z,9.90
2023-02-07T19:00:40.692Z,8.53
2023-02-07T19:03:09.042Z,11.00
2023-02-07T19:05:41.191Z,9.10
2023-02-07T19:08:09.480Z,9.30
2023-02-07T19:10:40.344Z,9.33
2023-02-07T19:13:10.264Z,9.23
2023-02-07T19:15:40.587Z,9.03
2023-02-07T19:18:10.744Z,8.57
2023-02-07T19:20:41.913Z,8.63
2023-02-07T19:23:12.659Z,10.20
2023-02-07T19:25:47.168Z,7.37
2023-02-07T19:28:16.851Z,9.27
2023-02-07T19:30:48.022Z,8.40
2023-02-07T19:33:16.276Z,9.33
2023-02-07T19:35:44.448Z,9.73
2023-02-07T19:38:12.758Z,7.97
2023-02-07T19:40:41.422Z,8.77
2023-02-07T19:43:12.477Z,7.60
2023-02-07T19:45:45.630Z,9.97
2023-02-07T19:48:13.776Z,8.03
2023-02-07T19:50:42.137Z,7.17
2023-02-07T19:53:10.368Z,8.20
2023-02-07T19:55:39.740Z,9.27
2023-02-07T19:58:08.283Z,10.37
2023-02-07T20:00:36.495Z,10.37
2023-02-07T20:03:08.644Z,8.53
2023-02-07T20:05:36.979Z,10.33
2023-02-07T20:08:05.487Z,10.97
2023-02-07T20:10:36.017Z,11.20
2023-02-07T20:13:06.523Z,11.80
2023-02-07T20:15:34.652Z,11.15
2023-02-07T20:18:02.853Z,11.87
2023-02-07T20:20:32.424Z,9.83
2023-02-07T20:23:03.700Z,9.23
2023-02-07T20:25:34.855Z,10.00
2023-02-07T20:28:03.095Z,9.57
2023-02-07T20:30:33.649Z,9.30
2023-02-07T20:33:02.025Z,7.67
2023-02-07T20:35:30.288Z,9.43
2023-02-07T20:37:59.953Z,8.70
2023-02-07T20:40:28.199Z,8.87
2023-02-07T20:42:56.422Z,9.53
2023-02-07T20:45:24.636Z,10.00
2023-02-07T20:47:52.738Z,8.57
2023-02-07T20:50:21.024Z,10.53
2023-02-07T20:52:51.399Z,9.50
2023-02-07T20:55:20.914Z,10.07
2023-02-07T20:57:49.063Z,10.20
2023-02-07T21:00:17.629Z,9.73
2023-02-07T21:02:45.765Z,9.63
2023-02-07T21:05:13.899Z,10.77
2023-02-07T21:07:44.408Z,11.77
2023-02-07T21:10:12.718Z,10.77
2023-02-07T21:12:42.318Z,9.80
2023-02-07T21:15:11.209Z,10.50
2023-02-07T21:17:39.433Z,12.10
2023-02-07T21:20:10.767Z,11.33
2023-02-07T21:22:38.924Z,12.17
2023-02-07T21:25:07.368Z,11.07
2023-02-07T21:27:35.790Z,11.23
2023-02-07T21:30:05.787Z,10.77
2023-02-07T21:32:34.275Z,9.60
2023-02-07T21:35:02.384Z,9.27
2023-02-07T21:37:33.100Z,9.23
2023-02-07T21:40:01.210Z,11.60
2023-02-07T21:42:29.327Z,10.57
2023-02-07T21:44:57.444Z,11.10
2023-02-07T21:47:28.308Z,12.20
2023-02-07T21:49:56.429Z,11.40
2023-02-07T21:52:24.865Z,14.13
2023-02-07T21:54:53.043Z,12.87
2023-02-07T21:57:21.237Z,11.93
2023-02-07T21:59:49.368Z,9.40
2023-02-07T22:02:17.567Z,9.90
2023-02-07T22:04:47.999Z,11.10
2023-02-07T22:07:16.231Z,14.15
2023-02-07T22:09:44.531Z,8.03
2023-02-07T22:12:12.690Z,10.10
2023-02-07T22:14:43.991Z,10.13
2023-02-07T22:17:12.207Z,12.93
2023-02-07T22:19:40.430Z,15.97
2023-02-07T22:22:09.921Z,14.17
2023-02-07T22:24:40.672Z,18.57
2023-02-07T22:27:12.157Z,15.27
2023-02-07T22:29:42.672Z,17.70
2023-02-07T22:32:11.043Z,15.23
2023-02-07T22:34:40.811Z,17.57
2023-02-07T22:37:10.315Z,15.00
2023-02-07T22:39:38.440Z,17.23
2023-02-07T22:42:06.621Z,14.63
2023-02-07T22:44:35.291Z,13.37
2023-02-07T22:47:03.426Z,13.97
2023-02-07T22:49:33.924Z,13.53
2023-02-07T22:52:02.038Z,13.80
2023-02-07T22:54:33.662Z,13.93
2023-02-07T22:57:01.772Z,17.70
2023-02-07T22:59:32.436Z,13.60
2023-02-07T23:02:00.498Z,10.90
2023-02-07T23:04:35.837Z,12.87
2023-02-07T23:07:06.051Z,10.07
2023-02-07T23:09:37.928Z,10.67
2023-02-07T23:12:08.581Z,11.03
2023-02-07T23:14:39.011Z,10.40
2023-02-07T23:17:07.092Z,11.77
2023-02-07T23:19:35.209Z,12.50
2023-02-07T23:22:03.479Z,9.67
2023-02-07T23:24:31.567Z,10.40
2023-02-07T23:27:01.100Z,11.10
2023-02-07T23:29:29.245Z,9.73
2023-02-07T23:31:57.397Z,13.27
2023-02-07T23:34:25.536Z,13.23
2023-02-07T23:36:53.736Z,12.27
2023-02-07T23:39:21.855Z,9.20
2023-02-07T23:41:52.340Z,12.53
2023-02-07T23:44:21.869Z,10.33
2023-02-07T23:46:50.024Z,10.63
2023-02-07T23:49:18.305Z,12.00
2023-02-07T23:51:46.618Z,11.63
2023-02-07T23:54:17.758Z,11.13
2023-02-07T23:56:45.814Z,12.17
2023-02-07T23:59:16.193Z,11.97
